Orchid Ace — 7JDE — position and weather

sailwx.info

Track history (hours):
 
Tides and Currents Weather Stations Pressure Air Temp Water Temp Dewpoint Dewpoint Depression Visibility Wind Speed Wind Dir Waves Ship Positions

Orchid Ace

Last reported at 2016-Sep-19 09:15 UTC. Time now 2016-Sep-26 19:04 UTC.
Position N 34°02' E 134°55'.

Length 200 m; draft 8.8 m.

Type: Cargo ship. MMSI: 432651000.

Date/timePositionNaut miles runAvg speedWind from/ knotsBaromVisibWave heightAir tempDewpointWater temp
2016-Sep-19 09:15N 34°02' E 134°55'2816.3
2016-Sep-19 07:33N 34°28' E 135°04'9 9.2
2016-Sep-19 06:33N 34°36' E 134°58'8 0.5
2016-Sep-18 15:13N 34°40' E 134°49'0 0.1
2016-Sep-18 14:31N 34°40' E 134°49'17 4.2
2016-Sep-18 10:34N 34°35' E 135°08'8 8.4
2016-Sep-18 09:34N 34°27' E 135°05'22910.0
2016-Sep-17 10:32N 35°05' E 139°40'1111.7
2016-Sep-17 09:33N 35°15' E 139°46'1312.7
2016-Sep-17 08:33N 35°27' E 139°41'0 0.4
2016-Sep-17 07:32N 35°27' E 139°41'0 0.0
2016-Sep-17 05:32N 35°27' E 139°41'0 0.0
2016-Sep-17 04:32N 35°27' E 139°41'0 0.0
2016-Sep-17 00:32N 35°27' E 139°41'0 0.0
2016-Sep-16 17:32N 35°27' E 139°41'0 0.0
2016-Sep-16 15:32N 35°27' E 139°41'0 0.0
2016-Sep-16 12:32N 35°27' E 139°41'0 0.0
2016-Sep-16 09:32N 35°27' E 139°41'2 0.9
2016-Sep-16 07:34N 35°26' E 139°43'35 8.8
2016-Sep-16 03:32N 34°53' E 139°27'  
2016-Sep-13 11:34N 34°04' E 134°58'2713.7
2016-Sep-13 09:33N 34°31' E 135°05'  
Track history (hours):
 
Tides and Currents Weather Stations Pressure Air Temp Water Temp Dewpoint Dewpoint Depression Visibility Wind Speed Wind Dir Waves Ship Positions

Orchid Ace

Last reported at 2016-Sep-19 09:15 UTC. Time now 2016-Sep-26 19:04 UTC.
Position N 34°02' E 134°55'.

Length 200 m; draft 8.8 m.

Type: Cargo ship. MMSI: 432651000.

Date/timePositionNaut miles runAvg speedWind from/ knotsBaromVisibWave heightAir tempDewpointWater temp
2016-Sep-19 09:15N 34°02' E 134°55'2816.3
2016-Sep-19 07:33N 34°28' E 135°04'9 9.2
2016-Sep-19 06:33N 34°36' E 134°58'8 0.5
2016-Sep-18 15:13N 34°40' E 134°49'0 0.1
2016-Sep-18 14:31N 34°40' E 134°49'17 4.2
2016-Sep-18 10:34N 34°35' E 135°08'8 8.4
2016-Sep-18 09:34N 34°27' E 135°05'22910.0
2016-Sep-17 10:32N 35°05' E 139°40'1111.7
2016-Sep-17 09:33N 35°15' E 139°46'1312.7
2016-Sep-17 08:33N 35°27' E 139°41'0 0.4
2016-Sep-17 07:32N 35°27' E 139°41'0 0.0
2016-Sep-17 05:32N 35°27' E 139°41'0 0.0
2016-Sep-17 04:32N 35°27' E 139°41'0 0.0
2016-Sep-17 00:32N 35°27' E 139°41'0 0.0
2016-Sep-16 17:32N 35°27' E 139°41'0 0.0
2016-Sep-16 15:32N 35°27' E 139°41'0 0.0
2016-Sep-16 12:32N 35°27' E 139°41'0 0.0
2016-Sep-16 09:32N 35°27' E 139°41'2 0.9
2016-Sep-16 07:34N 35°26' E 139°43'35 8.8
2016-Sep-16 03:32N 34°53' E 139°27'  
2016-Sep-13 11:34N 34°04' E 134°58'2713.7
2016-Sep-13 09:33N 34°31' E 135°05'  

Dump ship's entire track history